+12,Max TemperatureF,Mean TemperatureF,Min TemperatureF,Max Dew PointF,MeanDew PointF,Min DewpointF,Max Humidity, Mean Humidity, Min Humidity, Max Sea Level PressureIn, Mean Sea Level PressureIn, Min Sea Level PressureIn, Max VisibilityMiles, Mean VisibilityMiles, Min VisibilityMiles, Max Wind SpeedMPH, Mean Wind SpeedMPH, Max Gust SpeedMPH,PrecipitationIn, CloudCover, Events, WindDirDegrees
2005-1-1,87,82,77,77,76,73,100,84,70,29.86,29.81,29.77,,,,12,8,,0.00,6,Rain,84
2005-1-2,84,80,77,77,74,72,100,84,66,29.86,29.80,29.74,19,19,19,14,5,,0.00,5,Rain,119
2005-1-3,84,80,77,79,77,75,100,91,74,29.83,29.77,29.74,6,4,1,17,5,,0.00,7,Rain,95
2005-1-4,86,82,78,79,77,75,100,87,79,29.83,29.77,29.74,19,8,0,17,8,,0.00,6,Rain-Thunderstorm,84
2005-1-5,80,78,75,79,76,73,100,94,89,29.89,29.82,29.77,19,14,2,12,1,,0.00,8,Rain,70
2005-1-6,86,80,73,79,76,73,100,87,74,29.83,29.80,29.77,19,19,19,15,4,,0.00,7,Rain,82
2005-1-7,89,84,78,81,79,77,100,86,70,29.83,29.79,29.71,12,12,12,14,4,,0.00,6,Rain,78
2005-1-8,87,82,78,81,78,77,100,86,70,29.83,29.78,29.74,,,,14,3,,0.00,4,,85
2005-1-9,89,84,78,79,77,75,100,84,66,29.83,29.78,29.74,19,19,19,14,4,,0.00,3,Rain,87
2005-1-10,89,83,77,79,76,75,100,81,66,29.86,29.78,29.74,,,,14,3,,0.00,4,,40
2005-1-11,87,82,77,79,76,72,94,87,70,29.89,29.85,29.83,19,18,12,12,2,,0.00,5,Rain-Thunderstorm,19
2005-1-12,89,82,75,77,76,73,94,82,59,29.89,29.85,29.77,19,16,12,12,2,,0.00,3,Rain,57
2005-1-13,89,82,75,79,77,75,100,85,66,29.89,29.85,29.80,,,,14,3,,0.00,3,Rain,82
2005-1-14,89,83,77,81,77,77,100,86,66,29.89,29.85,29.83,,,,14,3,,0.00,3,,77
2005-1-15,89,82,75,79,75,73,94,81,59,29.86,29.83,29.77,,,,12,2,,0.00,3,,108
2005-1-16,84,80,75,79,77,75,100,94,79,29.86,29.81,29.77,19,8,2,8,1,,0.00,6,Rain,103
2005-1-17,82,80,77,77,76,75,100,93,79,29.89,29.85,29.80,19,13,6,12,3,,0.00,7,Rain,110
2005-1-18,84,80,77,77,76,75,100,90,74,29.89,29.85,29.80,19,14,9,14,4,,0.00,4,Rain-Thunderstorm,155
2005-1-19,87,81,75,77,76,73,100,86,66,29.89,29.82,29.74,19,13,9,12,3,,0.00,5,Rain,117
2005-1-20,87,81,75,79,75,73,94,83,66,29.89,29.85,29.80,19,16,12,14,2,,0.00,5,Rain,134
2005-1-21,87,80,73,77,75,73,100,87,70,29.89,29.85,29.80,,,,5,1,,0.00,4,,297
2005-1-22,89,82,75,79,76,70,100,83,52,29.86,29.82,29.77,,,,12,1,,0.00,4,,85
2005-1-23,89,83,77,79,77,73,100,85,59,29.83,29.80,29.74,,,,12,2,,0.00,5,Thunderstorm,65
2005-1-24,89,82,75,81,77,73,100,85,62,29.83,29.75,29.65,,,,12,2,,0.00,4,Rain-Thunderstorm,103
2005-1-25,89,83,77,79,77,75,100,86,70,29.77,29.71,29.65,12,12,12,9,2,,0.00,5,Rain-Thunderstorm,193
2005-1-26,89,82,75,77,76,73,100,83,66,29.74,29.67,29.62,,,,12,4,,0.00,4,,204
2005-1-27,89,82,75,77,75,72,100,85,62,29.71,29.67,29.59,19,19,19,9,2,,0.00,4,Rain-Thunderstorm,189
2005-1-28,86,80,75,79,76,75,100,88,70,29.71,29.66,29.62,19,14,12,7,1,,0.00,6,Rain,156
2005-1-29,87,81,75,79,76,73,100,88,66,29.68,29.62,29.56,19,19,19,15,3,,0.00,7,Rain,3
2005-1-30,82,78,75,79,76,73,94,93,89,29.62,29.57,29.53,12,12,12,12,2,,0.00,7,Rain,10
2005-1-31,86,82,75,77,75,73,94,82,66,29.65,29.56,29.50,12,12,12,14,10,,0.00,6,Rain,216